Terminal Aerodrome Forecast
Issued by NWS Wilmington, NC

Home | Current Version | Previous Version | Text Only | Print | Product List | Glossary On
Versions: 1 2 3 4 5 6 7 8 9 10 11 12 13 14
305
FTUS42 KILM 091720
TAFMYR
TAF
KMYR 091720Z 0918/1018 27017G25KT P6SM BKN050
     FM100200 25010KT P6SM SCT050 BKN100
     FM100900 27007KT P6SM SKC
     FM101500 28015KT P6SM SCT050 SCT100=

USA.gov is the U.S. government's official web portal to all federal, state and local government web resources and services.